sensor_id;sensor_type;location;lat;lon;timestamp;temperature;humidity
59977;DHT22;45837;51.076;3.578;2023-07-31T00:02:03;23.50;58.30
59977;DHT22;45837;51.076;3.578;2023-07-31T00:04:29;23.50;58.50
59977;DHT22;45837;51.076;3.578;2023-07-31T00:06:55;21.40;57.70
59977;DHT22;45837;51.076;3.578;2023-07-31T00:09:21;23.50;58.60
59977;DHT22;45837;51.076;3.578;2023-07-31T00:11:46;23.50;59.00
59977;DHT22;45837;51.076;3.578;2023-07-31T00:14:12;23.50;58.40
59977;DHT22;45837;51.076;3.578;2023-07-31T00:16:38;23.50;58.20
59977;DHT22;45837;51.076;3.578;2023-07-31T00:19:04;23.50;58.40
59977;DHT22;45837;51.076;3.578;2023-07-31T00:21:29;23.50;58.40
59977;DHT22;45837;51.076;3.578;2023-07-31T00:23:55;22.90;58.30
59977;DHT22;45837;51.076;3.578;2023-07-31T00:26:21;23.40;58.00
59977;DHT22;45837;51.076;3.578;2023-07-31T00:28:46;23.40;57.90
59977;DHT22;45837;51.076;3.578;2023-07-31T00:31:13;22.00;57.40
59977;DHT22;45837;51.076;3.578;2023-07-31T00:33:39;21.50;58.00
59977;DHT22;45837;51.076;3.578;2023-07-31T00:36:05;23.50;58.00
59977;DHT22;45837;51.076;3.578;2023-07-31T00:38:30;23.60;58.20
59977;DHT22;45837;51.076;3.578;2023-07-31T00:40:56;23.50;58.20
59977;DHT22;45837;51.076;3.578;2023-07-31T00:43:22;23.50;58.10
59977;DHT22;45837;51.076;3.578;2023-07-31T00:45:48;23.40;57.70
59977;DHT22;45837;51.076;3.578;2023-07-31T00:48:14;23.50;57.90
59977;DHT22;45837;51.076;3.578;2023-07-31T00:50:39;22.80;58.30
59977;DHT22;45837;51.076;3.578;2023-07-31T00:53:05;23.50;58.10
59977;DHT22;45837;51.076;3.578;2023-07-31T00:55:32;23.40;58.30
59977;DHT22;45837;51.076;3.578;2023-07-31T00:57:59;23.50;58.10
59977;DHT22;45837;51.076;3.578;2023-07-31T01:00:25;23.40;57.50
59977;DHT22;45837;51.076;3.578;2023-07-31T01:02:50;23.40;58.50
59977;DHT22;45837;51.076;3.578;2023-07-31T01:05:18;23.40;57.60
59977;DHT22;45837;51.076;3.578;2023-07-31T01:07:51;23.40;57.40
59977;DHT22;45837;51.076;3.578;2023-07-31T01:10:22;23.40;57.00
59977;DHT22;45837;51.076;3.578;2023-07-31T01:12:50;21.60;56.20
59977;DHT22;45837;51.076;3.578;2023-07-31T01:15:17;23.40;57.10
59977;DHT22;45837;51.076;3.578;2023-07-31T01:17:43;23.40;57.10
59977;DHT22;45837;51.076;3.578;2023-07-31T01:20:15;23.50;57.70
59977;DHT22;45837;51.076;3.578;2023-07-31T01:28:16;23.00;56.80
59977;DHT22;45837;51.076;3.578;2023-07-31T01:30:46;23.40;57.20
59977;DHT22;45837;51.076;3.578;2023-07-31T01:33:14;23.40;57.40
59977;DHT22;45837;51.076;3.578;2023-07-31T01:35:43;23.40;57.10
59977;DHT22;45837;51.076;3.578;2023-07-31T01:38:09;23.40;57.20
59977;DHT22;45837;51.076;3.578;2023-07-31T01:40:35;23.40;57.80
59977;DHT22;45837;51.076;3.578;2023-07-31T01:43:01;23.40;58.20
59977;DHT22;45837;51.076;3.578;2023-07-31T01:45:28;23.40;57.50
59977;DHT22;45837;51.076;3.578;2023-07-31T01:47:53;23.40;58.20
59977;DHT22;45837;51.076;3.578;2023-07-31T01:50:19;23.40;58.10
59977;DHT22;45837;51.076;3.578;2023-07-31T01:52:45;23.40;57.80
59977;DHT22;45837;51.076;3.578;2023-07-31T01:55:11;23.40;58.10
59977;DHT22;45837;51.076;3.578;2023-07-31T01:57:37;23.40;58.30
59977;DHT22;45837;51.076;3.578;2023-07-31T02:00:03;23.40;57.50
59977;DHT22;45837;51.076;3.578;2023-07-31T02:02:37;23.40;57.50
59977;DHT22;45837;51.076;3.578;2023-07-31T02:05:03;23.40;58.70
59977;DHT22;45837;51.076;3.578;2023-07-31T02:07:29;22.40;56.70
59977;DHT22;45837;51.076;3.578;2023-07-31T02:09:54;23.50;57.90
59977;DHT22;45837;51.076;3.578;2023-07-31T02:12:20;23.40;58.10
59977;DHT22;45837;51.076;3.578;2023-07-31T02:14:46;21.70;57.60
59977;DHT22;45837;51.076;3.578;2023-07-31T02:17:12;23.40;57.40
59977;DHT22;45837;51.076;3.578;2023-07-31T02:19:37;23.40;58.30
59977;DHT22;45837;51.076;3.578;2023-07-31T02:22:03;23.40;57.80
59977;DHT22;45837;51.076;3.578;2023-07-31T02:24:30;23.30;57.70
59977;DHT22;45837;51.076;3.578;2023-07-31T02:26:57;23.40;58.00
59977;DHT22;45837;51.076;3.578;2023-07-31T02:29:23;23.40;58.80
59977;DHT22;45837;51.076;3.578;2023-07-31T02:31:49;23.40;58.50
59977;DHT22;45837;51.076;3.578;2023-07-31T02:34:15;23.40;57.60
59977;DHT22;45837;51.076;3.578;2023-07-31T02:36:41;23.40;58.10
59977;DHT22;45837;51.076;3.578;2023-07-31T02:39:07;23.40;58.10
59977;DHT22;45837;51.076;3.578;2023-07-31T02:41:32;23.40;58.10
59977;DHT22;45837;51.076;3.578;2023-07-31T02:43:58;22.10;57.10
59977;DHT22;45837;51.076;3.578;2023-07-31T02:46:24;23.40;58.30
59977;DHT22;45837;51.076;3.578;2023-07-31T02:48:50;23.40;57.80
59977;DHT22;45837;51.076;3.578;2023-07-31T02:51:16;23.40;58.30
59977;DHT22;45837;51.076;3.578;2023-07-31T02:53:42;23.40;58.30
59977;DHT22;45837;51.076;3.578;2023-07-31T02:56:08;23.40;57.80
59977;DHT22;45837;51.076;3.578;2023-07-31T02:58:34;23.40;58.40
59977;DHT22;45837;51.076;3.578;2023-07-31T03:00:59;23.40;57.90
59977;DHT22;45837;51.076;3.578;2023-07-31T03:03:26;23.40;59.00
59977;DHT22;45837;51.076;3.578;2023-07-31T03:05:51;23.40;58.80
59977;DHT22;45837;51.076;3.578;2023-07-31T03:08:18;23.40;58.60
59977;DHT22;45837;51.076;3.578;2023-07-31T03:10:44;22.10;57.70
59977;DHT22;45837;51.076;3.578;2023-07-31T03:13:09;23.40;58.40
59977;DHT22;45837;51.076;3.578;2023-07-31T03:15:35;23.40;58.60
59977;DHT22;45837;51.076;3.578;2023-07-31T03:18:01;23.40;59.60
59977;DHT22;45837;51.076;3.578;2023-07-31T03:20:26;23.40;58.10
59977;DHT22;45837;51.076;3.578;2023-07-31T03:22:52;23.40;58.60
59977;DHT22;45837;51.076;3.578;2023-07-31T03:25:18;23.40;58.30
59977;DHT22;45837;51.076;3.578;2023-07-31T03:27:44;23.40;59.00
59977;DHT22;45837;51.076;3.578;2023-07-31T03:30:09;23.30;58.60
59977;DHT22;45837;51.076;3.578;2023-07-31T03:32:35;23.40;58.40
59977;DHT22;45837;51.076;3.578;2023-07-31T03:35:01;23.30;59.50
59977;DHT22;45837;51.076;3.578;2023-07-31T03:37:27;23.40;59.10
59977;DHT22;45837;51.076;3.578;2023-07-31T03:39:53;23.40;58.80
59977;DHT22;45837;51.076;3.578;2023-07-31T03:42:18;23.30;59.20
59977;DHT22;45837;51.076;3.578;2023-07-31T03:44:44;23.40;59.60
59977;DHT22;45837;51.076;3.578;2023-07-31T03:47:10;23.30;59.30
59977;DHT22;45837;51.076;3.578;2023-07-31T03:49:37;23.40;58.40
59977;DHT22;45837;51.076;3.578;2023-07-31T03:52:02;23.30;59.20
59977;DHT22;45837;51.076;3.578;2023-07-31T03:54:28;23.30;59.20
59977;DHT22;45837;51.076;3.578;2023-07-31T03:56:54;23.40;59.20
59977;DHT22;45837;51.076;3.578;2023-07-31T03:59:19;23.40;59.60
59977;DHT22;45837;51.076;3.578;2023-07-31T04:01:45;23.40;58.90
59977;DHT22;45837;51.076;3.578;2023-07-31T04:04:11;23.40;59.30
59977;DHT22;45837;51.076;3.578;2023-07-31T04:06:36;23.40;59.70
59977;DHT22;45837;51.076;3.578;2023-07-31T04:09:02;23.40;59.60
59977;DHT22;45837;51.076;3.578;2023-07-31T04:11:28;23.40;59.00
59977;DHT22;45837;51.076;3.578;2023-07-31T04:13:54;23.40;59.70
59977;DHT22;45837;51.076;3.578;2023-07-31T04:16:20;23.40;59.80
59977;DHT22;45837;51.076;3.578;2023-07-31T04:18:45;23.30;59.60
59977;DHT22;45837;51.076;3.578;2023-07-31T04:21:11;23.40;59.80
59977;DHT22;45837;51.076;3.578;2023-07-31T04:23:38;22.90;59.50
59977;DHT22;45837;51.076;3.578;2023-07-31T04:26:03;23.40;58.60
59977;DHT22;45837;51.076;3.578;2023-07-31T04:28:29;23.40;59.60
59977;DHT22;45837;51.076;3.578;2023-07-31T04:30:57;23.40;59.40
59977;DHT22;45837;51.076;3.578;2023-07-31T04:33:23;23.40;59.80
59977;DHT22;45837;51.076;3.578;2023-07-31T04:35:52;23.30;60.10
59977;DHT22;45837;51.076;3.578;2023-07-31T04:38:18;23.30;58.70
59977;DHT22;45837;51.076;3.578;2023-07-31T04:40:44;23.30;58.90
59977;DHT22;45837;51.076;3.578;2023-07-31T04:43:10;23.30;59.40
59977;DHT22;45837;51.076;3.578;2023-07-31T04:45:36;23.30;59.10
59977;DHT22;45837;51.076;3.578;2023-07-31T04:48:01;23.30;60.40
59977;DHT22;45837;51.076;3.578;2023-07-31T04:50:27;23.30;59.70
59977;DHT22;45837;51.076;3.578;2023-07-31T04:52:53;23.30;60.30
59977;DHT22;45837;51.076;3.578;2023-07-31T04:55:18;23.30;60.00
59977;DHT22;45837;51.076;3.578;2023-07-31T04:57:44;23.30;60.50
59977;DHT22;45837;51.076;3.578;2023-07-31T05:00:10;23.30;60.60
59977;DHT22;45837;51.076;3.578;2023-07-31T05:02:36;23.30;59.30
59977;DHT22;45837;51.076;3.578;2023-07-31T05:05:01;23.30;59.90
59977;DHT22;45837;51.076;3.578;2023-07-31T05:07:27;23.30;61.30
59977;DHT22;45837;51.076;3.578;2023-07-31T05:09:53;23.30;61.10
59977;DHT22;45837;51.076;3.578;2023-07-31T05:12:18;23.30;60.00
59977;DHT22;45837;51.076;3.578;2023-07-31T05:14:44;23.30;59.70
59977;DHT22;45837;51.076;3.578;2023-07-31T05:17:10;23.30;59.80
59977;DHT22;45837;51.076;3.578;2023-07-31T05:19:35;23.30;59.90
59977;DHT22;45837;51.076;3.578;2023-07-31T05:22:01;23.20;59.80
59977;DHT22;45837;51.076;3.578;2023-07-31T05:24:27;23.30;59.90
59977;DHT22;45837;51.076;3.578;2023-07-31T05:26:53;23.30;60.30
59977;DHT22;45837;51.076;3.578;2023-07-31T05:29:18;23.20;60.40
59977;DHT22;45837;51.076;3.578;2023-07-31T05:31:44;23.30;60.70
59977;DHT22;45837;51.076;3.578;2023-07-31T05:34:10;23.20;60.40
59977;DHT22;45837;51.076;3.578;2023-07-31T05:36:35;23.20;60.00
59977;DHT22;45837;51.076;3.578;2023-07-31T05:39:01;23.20;60.50
59977;DHT22;45837;51.076;3.578;2023-07-31T05:41:31;23.20;60.80
59977;DHT22;45837;51.076;3.578;2023-07-31T05:43:57;23.20;60.70
59977;DHT22;45837;51.076;3.578;2023-07-31T05:46:23;23.20;61.40
59977;DHT22;45837;51.076;3.578;2023-07-31T05:48:48;23.20;60.90
59977;DHT22;45837;51.076;3.578;2023-07-31T05:51:14;23.20;61.30
59977;DHT22;45837;51.076;3.578;2023-07-31T05:53:40;23.20;62.00
59977;DHT22;45837;51.076;3.578;2023-07-31T05:56:06;23.20;61.60
59977;DHT22;45837;51.076;3.578;2023-07-31T05:58:32;23.30;61.70
59977;DHT22;45837;51.076;3.578;2023-07-31T06:00:57;23.20;61.80
59977;DHT22;45837;51.076;3.578;2023-07-31T06:03:23;23.30;62.40
59977;DHT22;45837;51.076;3.578;2023-07-31T06:05:49;23.30;61.90
59977;DHT22;45837;51.076;3.578;2023-07-31T06:08:14;23.30;62.20
59977;DHT22;45837;51.076;3.578;2023-07-31T06:10:40;23.30;62.00
59977;DHT22;45837;51.076;3.578;2023-07-31T06:13:06;23.30;61.80
59977;DHT22;45837;51.076;3.578;2023-07-31T06:15:32;23.30;62.00
59977;DHT22;45837;51.076;3.578;2023-07-31T06:17:57;23.40;62.00
59977;DHT22;45837;51.076;3.578;2023-07-31T06:20:24;23.40;61.80
59977;DHT22;45837;51.076;3.578;2023-07-31T06:22:50;23.40;62.50
59977;DHT22;45837;51.076;3.578;2023-07-31T06:25:15;23.40;62.70
59977;DHT22;45837;51.076;3.578;2023-07-31T06:27:41;23.40;62.20
59977;DHT22;45837;51.076;3.578;2023-07-31T06:30:07;23.40;62.30
59977;DHT22;45837;51.076;3.578;2023-07-31T06:32:32;23.40;62.20
59977;DHT22;45837;51.076;3.578;2023-07-31T06:34:58;23.40;62.20
59977;DHT22;45837;51.076;3.578;2023-07-31T06:37:24;23.50;62.10
59977;DHT22;45837;51.076;3.578;2023-07-31T06:39:50;23.40;62.40
59977;DHT22;45837;51.076;3.578;2023-07-31T06:42:15;23.40;62.00
59977;DHT22;45837;51.076;3.578;2023-07-31T06:44:41;23.40;62.80
59977;DHT22;45837;51.076;3.578;2023-07-31T06:47:07;23.40;62.20
59977;DHT22;45837;51.076;3.578;2023-07-31T06:49:33;23.40;62.60
59977;DHT22;45837;51.076;3.578;2023-07-31T06:51:58;23.40;63.00
59977;DHT22;45837;51.076;3.578;2023-07-31T06:54:24;23.40;62.50
59977;DHT22;45837;51.076;3.578;2023-07-31T06:56:50;23.40;62.20
59977;DHT22;45837;51.076;3.578;2023-07-31T06:59:15;23.50;62.90
59977;DHT22;45837;51.076;3.578;2023-07-31T07:01:41;23.50;62.40
59977;DHT22;45837;51.076;3.578;2023-07-31T07:04:07;23.50;62.30
59977;DHT22;45837;51.076;3.578;2023-07-31T07:06:32;23.50;62.20
59977;DHT22;45837;51.076;3.578;2023-07-31T07:08:58;23.50;62.50
59977;DHT22;45837;51.076;3.578;2023-07-31T07:11:24;23.50;62.80
59977;DHT22;45837;51.076;3.578;2023-07-31T07:13:49;23.50;61.70
59977;DHT22;45837;51.076;3.578;2023-07-31T07:16:15;23.50;62.20
59977;DHT22;45837;51.076;3.578;2023-07-31T07:18:41;23.50;61.90
59977;DHT22;45837;51.076;3.578;2023-07-31T07:21:06;23.50;62.20
59977;DHT22;45837;51.076;3.578;2023-07-31T07:23:32;23.50;62.30
59977;DHT22;45837;51.076;3.578;2023-07-31T07:25:57;23.50;62.70
59977;DHT22;45837;51.076;3.578;2023-07-31T07:28:23;23.50;62.80
59977;DHT22;45837;51.076;3.578;2023-07-31T07:30:52;23.50;63.00
59977;DHT22;45837;51.076;3.578;2023-07-31T07:33:20;23.50;61.30
59977;DHT22;45837;51.076;3.578;2023-07-31T07:35:46;23.50;62.50
59977;DHT22;45837;51.076;3.578;2023-07-31T07:38:13;23.50;62.90
59977;DHT22;45837;51.076;3.578;2023-07-31T07:40:39;23.50;61.50
59977;DHT22;45837;51.076;3.578;2023-07-31T07:43:05;23.60;61.90
59977;DHT22;45837;51.076;3.578;2023-07-31T07:45:30;23.50;62.10
59977;DHT22;45837;51.076;3.578;2023-07-31T07:47:56;23.50;62.20
59977;DHT22;45837;51.076;3.578;2023-07-31T07:50:22;23.50;63.40
59977;DHT22;45837;51.076;3.578;2023-07-31T07:52:47;23.60;63.90
59977;DHT22;45837;51.076;3.578;2023-07-31T07:55:13;23.60;63.40
59977;DHT22;45837;51.076;3.578;2023-07-31T07:57:39;23.60;63.30
59977;DHT22;45837;51.076;3.578;2023-07-31T08:00:05;23.60;64.30
59977;DHT22;45837;51.076;3.578;2023-07-31T08:02:39;23.60;63.30
59977;DHT22;45837;51.076;3.578;2023-07-31T08:05:05;23.70;63.60
59977;DHT22;45837;51.076;3.578;2023-07-31T08:07:30;23.70;63.70
59977;DHT22;45837;51.076;3.578;2023-07-31T08:09:56;23.70;63.00
59977;DHT22;45837;51.076;3.578;2023-07-31T08:12:22;23.70;63.10
59977;DHT22;45837;51.076;3.578;2023-07-31T08:14:47;23.70;62.80
59977;DHT22;45837;51.076;3.578;2023-07-31T08:17:13;23.70;62.90
59977;DHT22;45837;51.076;3.578;2023-07-31T08:19:39;23.70;62.70
59977;DHT22;45837;51.076;3.578;2023-07-31T08:22:04;23.70;62.50
59977;DHT22;45837;51.076;3.578;2023-07-31T08:24:30;23.60;62.20
59977;DHT22;45837;51.076;3.578;2023-07-31T08:26:56;23.60;63.00
59977;DHT22;45837;51.076;3.578;2023-07-31T08:29:21;23.60;62.70
59977;DHT22;45837;51.076;3.578;2023-07-31T08:31:47;23.60;62.40
59977;DHT22;45837;51.076;3.578;2023-07-31T08:34:13;23.60;62.40
59977;DHT22;45837;51.076;3.578;2023-07-31T08:36:39;23.60;62.10
59977;DHT22;45837;51.076;3.578;2023-07-31T08:39:04;23.60;62.80
59977;DHT22;45837;51.076;3.578;2023-07-31T08:41:30;23.60;62.40
59977;DHT22;45837;51.076;3.578;2023-07-31T08:43:56;23.60;62.70
59977;DHT22;45837;51.076;3.578;2023-07-31T08:46:22;23.60;62.20
59977;DHT22;45837;51.076;3.578;2023-07-31T08:48:48;23.60;62.10
59977;DHT22;45837;51.076;3.578;2023-07-31T08:51:14;23.60;62.40
59977;DHT22;45837;51.076;3.578;2023-07-31T08:53:40;23.60;62.80
59977;DHT22;45837;51.076;3.578;2023-07-31T08:56:06;23.60;63.00
59977;DHT22;45837;51.076;3.578;2023-07-31T08:58:32;23.60;62.30
59977;DHT22;45837;51.076;3.578;2023-07-31T09:00:59;23.60;62.20
59977;DHT22;45837;51.076;3.578;2023-07-31T09:03:26;23.60;62.40
59977;DHT22;45837;51.076;3.578;2023-07-31T09:05:52;23.50;63.00
59977;DHT22;45837;51.076;3.578;2023-07-31T09:08:19;23.60;62.80
59977;DHT22;45837;51.076;3.578;2023-07-31T09:10:46;23.60;62.80
59977;DHT22;45837;51.076;3.578;2023-07-31T09:13:12;23.60;62.80
59977;DHT22;45837;51.076;3.578;2023-07-31T09:15:38;23.60;62.80
59977;DHT22;45837;51.076;3.578;2023-07-31T09:18:05;23.60;62.70
59977;DHT22;45837;51.076;3.578;2023-07-31T09:20:31;23.60;62.60
59977;DHT22;45837;51.076;3.578;2023-07-31T09:23:09;23.60;63.60
59977;DHT22;45837;51.076;3.578;2023-07-31T09:25:35;23.60;62.70
59977;DHT22;45837;51.076;3.578;2023-07-31T09:28:05;23.60;63.40
59977;DHT22;45837;51.076;3.578;2023-07-31T09:30:36;23.70;62.80
59977;DHT22;45837;51.076;3.578;2023-07-31T09:33:09;23.70;63.20
59977;DHT22;45837;51.076;3.578;2023-07-31T09:35:34;23.70;63.90
59977;DHT22;45837;51.076;3.578;2023-07-31T09:38:03;23.70;63.70
59977;DHT22;45837;51.076;3.578;2023-07-31T09:40:32;23.70;63.80
59977;DHT22;45837;51.076;3.578;2023-07-31T09:43:02;21.20;62.40
59977;DHT22;45837;51.076;3.578;2023-07-31T09:45:28;23.80;64.10
59977;DHT22;45837;51.076;3.578;2023-07-31T09:47:55;23.80;64.40
59977;DHT22;45837;51.076;3.578;2023-07-31T09:50:21;23.80;64.60
59977;DHT22;45837;51.076;3.578;2023-07-31T09:52:48;23.80;64.20
59977;DHT22;45837;51.076;3.578;2023-07-31T09:55:13;23.80;64.60
59977;DHT22;45837;51.076;3.578;2023-07-31T09:57:40;23.90;65.30
59977;DHT22;45837;51.076;3.578;2023-07-31T10:00:06;23.80;65.10
59977;DHT22;45837;51.076;3.578;2023-07-31T10:02:37;23.90;65.10
59977;DHT22;45837;51.076;3.578;2023-07-31T10:05:03;23.90;65.10
59977;DHT22;45837;51.076;3.578;2023-07-31T10:07:30;23.90;65.10
59977;DHT22;45837;51.076;3.578;2023-07-31T10:09:59;23.90;65.00
59977;DHT22;45837;51.076;3.578;2023-07-31T10:12:26;23.90;65.30
59977;DHT22;45837;51.076;3.578;2023-07-31T10:14:54;24.00;66.30
59977;DHT22;45837;51.076;3.578;2023-07-31T10:17:21;23.90;66.10
59977;DHT22;45837;51.076;3.578;2023-07-31T10:19:46;23.90;65.90
59977;DHT22;45837;51.076;3.578;2023-07-31T10:22:14;24.00;67.90
59977;DHT22;45837;51.076;3.578;2023-07-31T10:24:39;24.00;69.40
59977;DHT22;45837;51.076;3.578;2023-07-31T10:27:06;24.00;69.30
59977;DHT22;45837;51.076;3.578;2023-07-31T10:29:32;24.10;68.90
59977;DHT22;45837;51.076;3.578;2023-07-31T10:31:59;24.00;69.20
59977;DHT22;45837;51.076;3.578;2023-07-31T10:34:25;24.00;69.00
59977;DHT22;45837;51.076;3.578;2023-07-31T10:36:56;24.00;69.00
59977;DHT22;45837;51.076;3.578;2023-07-31T10:39:37;24.10;68.00
59977;DHT22;45837;51.076;3.578;2023-07-31T10:42:09;24.10;67.40
59977;DHT22;45837;51.076;3.578;2023-07-31T10:44:35;24.10;67.10
59977;DHT22;45837;51.076;3.578;2023-07-31T10:47:00;24.10;67.80
59977;DHT22;45837;51.076;3.578;2023-07-31T10:49:27;24.10;68.00
59977;DHT22;45837;51.076;3.578;2023-07-31T10:51:55;24.20;66.50
59977;DHT22;45837;51.076;3.578;2023-07-31T10:54:21;24.20;66.10
59977;DHT22;45837;51.076;3.578;2023-07-31T10:56:46;24.20;67.10
59977;DHT22;45837;51.076;3.578;2023-07-31T10:59:15;24.20;65.60
59977;DHT22;45837;51.076;3.578;2023-07-31T11:01:53;24.10;65.60
59977;DHT22;45837;51.076;3.578;2023-07-31T11:04:25;24.20;65.40
59977;DHT22;45837;51.076;3.578;2023-07-31T11:06:57;24.20;65.20
59977;DHT22;45837;51.076;3.578;2023-07-31T11:09:24;24.20;65.50
59977;DHT22;45837;51.076;3.578;2023-07-31T11:11:50;24.10;65.70
59977;DHT22;45837;51.076;3.578;2023-07-31T11:14:17;24.20;66.40
59977;DHT22;45837;51.076;3.578;2023-07-31T11:16:43;24.20;66.40
59977;DHT22;45837;51.076;3.578;2023-07-31T11:19:09;24.20;67.00
59977;DHT22;45837;51.076;3.578;2023-07-31T11:21:34;24.20;67.20
59977;DHT22;45837;51.076;3.578;2023-07-31T11:24:00;24.20;67.60
59977;DHT22;45837;51.076;3.578;2023-07-31T11:26:26;24.10;66.70
59977;DHT22;45837;51.076;3.578;2023-07-31T11:28:52;23.90;65.80
59977;DHT22;45837;51.076;3.578;2023-07-31T11:31:18;24.10;66.10
59977;DHT22;45837;51.076;3.578;2023-07-31T11:33:44;24.20;65.50
59977;DHT22;45837;51.076;3.578;2023-07-31T11:36:17;24.20;66.00
59977;DHT22;45837;51.076;3.578;2023-07-31T11:38:42;24.20;64.10
59977;DHT22;45837;51.076;3.578;2023-07-31T11:41:08;24.20;65.40
59977;DHT22;45837;51.076;3.578;2023-07-31T11:43:34;24.20;64.40
59977;DHT22;45837;51.076;3.578;2023-07-31T11:46:02;24.20;64.00
59977;DHT22;45837;51.076;3.578;2023-07-31T11:48:32;24.20;63.50
59977;DHT22;45837;51.076;3.578;2023-07-31T11:51:08;23.00;62.10
59977;DHT22;45837;51.076;3.578;2023-07-31T11:56:03;24.20;62.80
59977;DHT22;45837;51.076;3.578;2023-07-31T11:58:32;24.10;63.30
59977;DHT22;45837;51.076;3.578;2023-07-31T12:00:59;24.10;63.30
59977;DHT22;45837;51.076;3.578;2023-07-31T12:03:25;24.10;63.10
59977;DHT22;45837;51.076;3.578;2023-07-31T12:05:52;24.10;64.30
59977;DHT22;45837;51.076;3.578;2023-07-31T12:08:18;24.00;63.30
59977;DHT22;45837;51.076;3.578;2023-07-31T12:10:46;24.00;63.00
59977;DHT22;45837;51.076;3.578;2023-07-31T12:13:20;22.20;62.50
59977;DHT22;45837;51.076;3.578;2023-07-31T12:15:46;24.00;62.70
59977;DHT22;45837;51.076;3.578;2023-07-31T12:18:13;24.00;63.30
59977;DHT22;45837;51.076;3.578;2023-07-31T12:20:40;24.00;62.40
59977;DHT22;45837;51.076;3.578;2023-07-31T12:23:06;24.00;62.70
59977;DHT22;45837;51.076;3.578;2023-07-31T12:25:32;24.00;64.10
59977;DHT22;45837;51.076;3.578;2023-07-31T12:27:58;24.00;63.30
59977;DHT22;45837;51.076;3.578;2023-07-31T12:30:33;26.80;65.30
59977;DHT22;45837;51.076;3.578;2023-07-31T12:33:03;24.00;63.30
59977;DHT22;45837;51.076;3.578;2023-07-31T12:35:34;24.00;64.30
59977;DHT22;45837;51.076;3.578;2023-07-31T12:38:03;21.40;62.80
59977;DHT22;45837;51.076;3.578;2023-07-31T12:40:29;24.00;64.50
59977;DHT22;45837;51.076;3.578;2023-07-31T12:42:54;24.00;65.20
59977;DHT22;45837;51.076;3.578;2023-07-31T12:45:20;24.00;65.80
59977;DHT22;45837;51.076;3.578;2023-07-31T12:47:46;24.00;66.40
59977;DHT22;45837;51.076;3.578;2023-07-31T12:50:12;23.90;66.50
59977;DHT22;45837;51.076;3.578;2023-07-31T12:52:38;24.00;67.50
59977;DHT22;45837;51.076;3.578;2023-07-31T12:55:04;23.80;67.90
59977;DHT22;45837;51.076;3.578;2023-07-31T12:57:30;23.90;66.10
59977;DHT22;45837;51.076;3.578;2023-07-31T12:59:56;23.90;66.50
59977;DHT22;45837;51.076;3.578;2023-07-31T13:02:22;21.90;65.40
59977;DHT22;45837;51.076;3.578;2023-07-31T13:04:49;23.90;66.70
59977;DHT22;45837;51.076;3.578;2023-07-31T13:07:15;23.90;66.00
59977;DHT22;45837;51.076;3.578;2023-07-31T13:09:41;23.90;66.60
59977;DHT22;45837;51.076;3.578;2023-07-31T13:12:07;23.90;66.80
59977;DHT22;45837;51.076;3.578;2023-07-31T13:14:33;24.00;66.00
59977;DHT22;45837;51.076;3.578;2023-07-31T13:16:59;23.90;67.00
59977;DHT22;45837;51.076;3.578;2023-07-31T13:19:25;23.20;66.90
59977;DHT22;45837;51.076;3.578;2023-07-31T13:21:50;23.80;66.50
59977;DHT22;45837;51.076;3.578;2023-07-31T13:24:16;23.80;67.50
59977;DHT22;45837;51.076;3.578;2023-07-31T13:26:42;23.80;66.60
59977;DHT22;45837;51.076;3.578;2023-07-31T13:29:08;23.70;67.20
59977;DHT22;45837;51.076;3.578;2023-07-31T13:31:33;23.70;68.00
59977;DHT22;45837;51.076;3.578;2023-07-31T13:33:59;23.70;67.30
59977;DHT22;45837;51.076;3.578;2023-07-31T13:36:25;23.70;67.40
59977;DHT22;45837;51.076;3.578;2023-07-31T13:38:51;23.60;68.00
59977;DHT22;45837;51.076;3.578;2023-07-31T13:41:17;23.60;67.40
59977;DHT22;45837;51.076;3.578;2023-07-31T13:43:42;23.60;67.90
59977;DHT22;45837;51.076;3.578;2023-07-31T13:46:08;23.60;67.40
59977;DHT22;45837;51.076;3.578;2023-07-31T13:48:36;23.60;67.70
59977;DHT22;45837;51.076;3.578;2023-07-31T13:51:02;23.50;67.90
59977;DHT22;45837;51.076;3.578;2023-07-31T13:53:28;23.80;67.60
59977;DHT22;45837;51.076;3.578;2023-07-31T13:55:53;23.50;67.70
59977;DHT22;45837;51.076;3.578;2023-07-31T13:58:19;23.50;68.90
59977;DHT22;45837;51.076;3.578;2023-07-31T14:00:45;23.50;66.80
59977;DHT22;45837;51.076;3.578;2023-07-31T14:03:11;23.40;68.50
59977;DHT22;45837;51.076;3.578;2023-07-31T14:05:37;23.50;68.80
59977;DHT22;45837;51.076;3.578;2023-07-31T14:08:03;22.80;66.90
59977;DHT22;45837;51.076;3.578;2023-07-31T14:10:29;23.20;67.40
59977;DHT22;45837;51.076;3.578;2023-07-31T14:12:55;23.40;68.20
59977;DHT22;45837;51.076;3.578;2023-07-31T14:15:20;23.40;68.70
59977;DHT22;45837;51.076;3.578;2023-07-31T14:17:46;23.40;67.90
59977;DHT22;45837;51.076;3.578;2023-07-31T14:20:12;25.00;69.60
59977;DHT22;45837;51.076;3.578;2023-07-31T14:22:38;21.50;67.20
59977;DHT22;45837;51.076;3.578;2023-07-31T14:25:04;23.40;68.50
59977;DHT22;45837;51.076;3.578;2023-07-31T14:27:30;23.40;67.70
59977;DHT22;45837;51.076;3.578;2023-07-31T14:29:56;23.40;69.20
59977;DHT22;45837;51.076;3.578;2023-07-31T14:32:22;23.40;68.60
59977;DHT22;45837;51.076;3.578;2023-07-31T14:34:49;23.10;67.70
59977;DHT22;45837;51.076;3.578;2023-07-31T14:37:14;23.30;68.10
59977;DHT22;45837;51.076;3.578;2023-07-31T14:39:40;23.30;68.90
59977;DHT22;45837;51.076;3.578;2023-07-31T14:42:06;23.30;68.90
59977;DHT22;45837;51.076;3.578;2023-07-31T14:44:32;23.30;69.10
59977;DHT22;45837;51.076;3.578;2023-07-31T14:46:57;23.30;70.00
59977;DHT22;45837;51.076;3.578;2023-07-31T14:49:23;23.30;69.50
59977;DHT22;45837;51.076;3.578;2023-07-31T14:51:49;23.30;69.80
59977;DHT22;45837;51.076;3.578;2023-07-31T14:54:15;23.30;69.20
59977;DHT22;45837;51.076;3.578;2023-07-31T14:56:40;23.30;69.10
59977;DHT22;45837;51.076;3.578;2023-07-31T14:59:06;23.20;69.80
59977;DHT22;45837;51.076;3.578;2023-07-31T15:01:33;23.30;69.20
59977;DHT22;45837;51.076;3.578;2023-07-31T15:03:59;26.00;71.10
59977;DHT22;45837;51.076;3.578;2023-07-31T15:06:25;23.30;69.50
59977;DHT22;45837;51.076;3.578;2023-07-31T15:08:50;23.30;69.30
59977;DHT22;45837;51.076;3.578;2023-07-31T15:11:16;23.30;69.50
59977;DHT22;45837;51.076;3.578;2023-07-31T15:13:43;23.20;69.00
59977;DHT22;45837;51.076;3.578;2023-07-31T15:16:09;23.30;69.70
59977;DHT22;45837;51.076;3.578;2023-07-31T15:18:35;23.20;69.90
59977;DHT22;45837;51.076;3.578;2023-07-31T15:21:01;23.20;69.90
59977;DHT22;45837;51.076;3.578;2023-07-31T15:23:27;23.20;69.00
59977;DHT22;45837;51.076;3.578;2023-07-31T15:25:52;23.20;69.50
59977;DHT22;45837;51.076;3.578;2023-07-31T15:28:18;23.20;69.90
59977;DHT22;45837;51.076;3.578;2023-07-31T15:30:44;23.20;69.40
59977;DHT22;45837;51.076;3.578;2023-07-31T15:33:10;23.20;70.10